createdAt,value
2022-11-23T00:00:31.186Z,2.42
2022-11-23T00:02:58.658Z,2.60
2022-11-23T00:05:25.841Z,2.22
2022-11-23T00:07:52.394Z,2.00
2022-11-23T00:10:20.742Z,2.05
2022-11-23T00:12:47.621Z,2.30
2022-11-23T00:15:15.747Z,2.40
2022-11-23T00:17:42.266Z,2.47
2022-11-23T00:20:09.593Z,2.63
2022-11-23T00:22:36.106Z,2.35
2022-11-23T00:25:02.884Z,2.55
2022-11-23T00:27:30.787Z,2.30
2022-11-23T00:29:57.436Z,2.92
2022-11-23T00:32:23.982Z,2.50
2022-11-23T00:34:50.592Z,2.13
2022-11-23T00:37:17.141Z,2.58
2022-11-23T00:39:43.702Z,2.30
2022-11-23T00:42:10.260Z,2.33
2022-11-23T00:44:38.207Z,2.30
2022-11-23T00:47:04.982Z,2.47
2022-11-23T00:49:31.817Z,2.78
2022-11-23T00:51:58.541Z,2.00
2022-11-23T00:54:25.120Z,2.00
2022-11-23T00:56:51.680Z,2.20
2022-11-23T00:59:18.227Z,2.92
2022-11-23T01:01:46.359Z,2.72
2022-11-23T01:04:13.050Z,2.10
2022-11-23T01:06:40.165Z,2.35
2022-11-23T01:09:08.331Z,1.90
2022-11-23T01:11:35.629Z,2.13
2022-11-23T01:14:02.546Z,2.28
2022-11-23T01:16:31.143Z,2.07
2022-11-23T01:19:00.729Z,2.10
2022-11-23T01:21:29.322Z,2.25
2022-11-23T01:23:56.330Z,2.65
2022-11-23T01:26:23.315Z,2.22
2022-11-23T01:28:50.480Z,2.40
2022-11-23T01:31:19.166Z,2.40
2022-11-23T01:33:46.646Z,2.30
2022-11-23T01:36:17.022Z,2.30
2022-11-23T01:38:44.764Z,2.22
2022-11-23T01:41:13.783Z,1.90
2022-11-23T01:43:40.506Z,2.10
2022-11-23T01:46:07.134Z,2.80
2022-11-23T01:48:38.960Z,2.53
2022-11-23T01:51:09.185Z,1.90
2022-11-23T01:53:38.476Z,2.30
2022-11-23T01:56:06.842Z,2.20
2022-11-23T01:58:37.204Z,2.60
2022-11-23T02:01:03.997Z,1.90
2022-11-23T02:03:32.466Z,2.00
2022-11-23T02:06:01.717Z,1.93
2022-11-23T02:08:29.776Z,1.92
2022-11-23T02:10:58.980Z,2.10
2022-11-23T02:13:27.602Z,2.00
2022-11-23T02:15:55.909Z,1.90
2022-11-23T02:18:24.796Z,1.90
2022-11-23T02:20:52.775Z,2.00
2022-11-23T02:23:31.915Z,1.92
2022-11-23T02:26:04.071Z,1.70
2022-11-23T02:28:36.328Z,2.00
2022-11-23T02:31:02.897Z,2.10
2022-11-23T02:33:29.692Z,1.60
2022-11-23T02:35:58.985Z,1.95
2022-11-23T02:38:28.379Z,1.60
2022-11-23T02:40:54.863Z,1.95
2022-11-23T02:43:23.329Z,1.90
2022-11-23T02:45:52.791Z,2.30
2022-11-23T02:48:19.603Z,1.70
2022-11-23T02:50:46.658Z,1.73
2022-11-23T02:53:13.670Z,4.57
2022-11-23T02:55:40.441Z,1.73
2022-11-23T02:58:07.753Z,2.10
2022-11-23T03:00:36.391Z,2.13
2022-11-23T03:03:03.744Z,1.80
2022-11-23T03:05:30.445Z,2.10
2022-11-23T03:07:57.153Z,1.70
2022-11-23T03:10:23.661Z,2.55
2022-11-23T03:12:53.141Z,2.00
2022-11-23T03:15:19.922Z,2.22
2022-11-23T03:17:47.866Z,2.20
2022-11-23T03:20:14.817Z,1.93
2022-11-23T03:22:41.362Z,2.40
2022-11-23T03:25:08.160Z,1.90
2022-11-23T03:27:34.724Z,2.08
2022-11-23T03:30:01.273Z,2.05
2022-11-23T03:32:27.840Z,2.10
2022-11-23T03:34:55.754Z,2.10
2022-11-23T03:37:22.372Z,2.25
2022-11-23T03:39:49.022Z,2.10
2022-11-23T03:42:15.678Z,2.55
2022-11-23T03:44:42.185Z,1.93
2022-11-23T03:47:08.855Z,2.15
2022-11-23T03:49:35.381Z,2.38
2022-11-23T03:52:03.648Z,2.08
2022-11-23T03:54:30.162Z,2.35
2022-11-23T03:56:56.699Z,2.40
2022-11-23T03:59:23.385Z,2.75
2022-11-23T04:01:49.926Z,2.10
2022-11-23T04:04:16.615Z,2.80
2022-11-23T04:06:43.095Z,2.38
2022-11-23T04:09:11.882Z,2.30
2022-11-23T04:11:38.405Z,2.50
2022-11-23T04:14:05.097Z,2.25
2022-11-23T04:16:31.819Z,2.30
2022-11-23T04:18:58.326Z,2.60
2022-11-23T04:21:25.044Z,3.00
2022-11-23T04:23:51.715Z,2.67
2022-11-23T04:26:19.613Z,2.30
2022-11-23T04:28:46.299Z,2.45
2022-11-23T04:31:12.881Z,2.40
2022-11-23T04:33:39.550Z,2.87
2022-11-23T04:36:06.326Z,2.88
2022-11-23T04:38:32.876Z,2.63
2022-11-23T04:40:59.473Z,2.75
2022-11-23T04:43:27.392Z,2.53
2022-11-23T04:45:54.082Z,2.50
2022-11-23T04:48:20.744Z,2.55
2022-11-23T04:50:47.580Z,3.28
2022-11-23T04:53:15.199Z,2.70
2022-11-23T04:55:41.749Z,2.78
2022-11-23T04:58:08.421Z,2.60
2022-11-23T05:00:36.362Z,2.53
2022-11-23T05:03:03.154Z,2.60
2022-11-23T05:05:29.655Z,2.50
2022-11-23T05:07:57.767Z,2.40
2022-11-23T05:10:24.351Z,2.13
2022-11-23T05:12:50.905Z,2.53
2022-11-23T05:15:17.666Z,2.28
2022-11-23T05:17:45.638Z,2.22
2022-11-23T05:20:12.682Z,2.45
2022-11-23T05:22:39.252Z,4.90
2022-11-23T05:25:07.257Z,2.58
2022-11-23T05:27:33.802Z,3.80
2022-11-23T05:30:00.892Z,6.50
2022-11-23T05:32:27.889Z,3.47
2022-11-23T05:34:56.008Z,3.87
2022-11-23T05:37:22.752Z,3.28
2022-11-23T05:39:49.329Z,2.83
2022-11-23T05:42:16.056Z,2.67
2022-11-23T05:44:42.561Z,2.60
2022-11-23T05:47:09.137Z,2.90
2022-11-23T05:49:35.649Z,2.50
2022-11-23T05:52:03.770Z,3.17
2022-11-23T05:54:30.996Z,2.80
2022-11-23T05:56:57.674Z,3.20
2022-11-23T05:59:24.159Z,3.07
2022-11-23T06:01:50.743Z,3.15
2022-11-23T06:04:17.341Z,2.85
2022-11-23T06:06:44.222Z,2.25
2022-11-23T06:09:12.274Z,2.33
2022-11-23T06:11:38.813Z,2.10
2022-11-23T06:14:07.764Z,2.08
2022-11-23T06:16:37.899Z,2.03
2022-11-23T06:19:04.541Z,2.03
2022-11-23T06:21:31.499Z,2.30
2022-11-23T06:23:57.998Z,2.20
2022-11-23T06:26:26.536Z,2.25
2022-11-23T06:28:53.088Z,2.75
2022-11-23T06:31:19.759Z,2.20
2022-11-23T06:33:46.472Z,2.60
2022-11-23T06:36:13.026Z,2.10
2022-11-23T06:38:39.517Z,2.20
2022-11-23T06:41:06.447Z,2.58
2022-11-23T06:43:34.500Z,2.35
2022-11-23T06:46:04.507Z,2.60
2022-11-23T06:48:31.048Z,2.37
2022-11-23T06:50:58.672Z,2.20
2022-11-23T06:53:25.238Z,2.28
2022-11-23T06:55:51.992Z,2.40
2022-11-23T06:58:18.689Z,2.78
2022-11-23T07:00:46.683Z,2.30
2022-11-23T07:03:19.711Z,2.45
2022-11-23T07:05:46.680Z,3.33
2022-11-23T07:08:13.290Z,2.78
2022-11-23T07:10:39.826Z,3.20
2022-11-23T07:13:08.144Z,2.43
2022-11-23T07:15:34.786Z,2.53
2022-11-23T07:18:02.701Z,3.45
2022-11-23T07:20:29.414Z,2.50
2022-11-23T07:22:59.737Z,3.15
2022-11-23T07:25:26.301Z,2.60
2022-11-23T07:27:55.539Z,2.75
2022-11-23T07:30:25.252Z,2.70
2022-11-23T07:32:59.547Z,2.00
2022-11-23T07:35:27.817Z,2.22
2022-11-23T07:37:54.491Z,2.07
2022-11-23T07:40:21.218Z,2.20
2022-11-23T07:42:47.830Z,2.75
2022-11-23T07:45:14.378Z,2.55
2022-11-23T07:47:41.036Z,2.60
2022-11-23T07:50:09.115Z,2.50
2022-11-23T07:52:37.405Z,2.33
2022-11-23T07:55:04.723Z,2.70
2022-11-23T07:57:31.308Z,2.90
2022-11-23T07:59:59.012Z,2.30
2022-11-23T08:02:25.917Z,2.37
2022-11-23T08:04:52.518Z,2.60
2022-11-23T08:07:19.200Z,2.70
2022-11-23T08:09:47.148Z,2.92
2022-11-23T08:12:13.862Z,2.92
2022-11-23T08:14:40.474Z,2.73
2022-11-23T08:17:07.126Z,2.58
2022-11-23T08:19:33.681Z,2.45
2022-11-23T08:22:00.251Z,2.05
2022-11-23T08:24:26.926Z,2.38
2022-11-23T08:26:55.936Z,2.37
2022-11-23T08:29:22.493Z,2.42
2022-11-23T08:31:49.006Z,2.70
2022-11-23T08:34:15.579Z,2.30
2022-11-23T08:36:42.152Z,2.50
2022-11-23T08:39:08.829Z,2.23
2022-11-23T08:41:35.423Z,2.30
2022-11-23T08:44:03.334Z,2.22
2022-11-23T08:46:30.039Z,2.13
2022-11-23T08:48:56.541Z,2.22
2022-11-23T08:51:23.065Z,2.30
2022-11-23T08:53:50.397Z,2.17
2022-11-23T08:56:17.788Z,2.25
2022-11-23T08:58:45.042Z,2.20
2022-11-23T09:01:15.520Z,2.20
2022-11-23T09:03:42.828Z,1.97
2022-11-23T09:06:10.019Z,4.57
2022-11-23T09:08:37.011Z,2.30
2022-11-23T09:11:05.847Z,2.25
2022-11-23T09:13:32.520Z,2.40
2022-11-23T09:15:59.495Z,3.43
2022-11-23T09:18:28.530Z,2.38
2022-11-23T09:20:55.051Z,3.75
2022-11-23T09:23:21.656Z,3.92
2022-11-23T09:25:48.409Z,2.10
2022-11-23T09:28:14.972Z,2.30
2022-11-23T09:30:41.923Z,2.78
2022-11-23T09:33:08.617Z,2.60
2022-11-23T09:35:42.377Z,2.28
2022-11-23T09:38:10.302Z,2.22
2022-11-23T09:40:40.254Z,2.70
2022-11-23T09:43:32.994Z,2.70
2022-11-23T09:46:08.413Z,2.40
2022-11-23T09:48:50.699Z,2.22
2022-11-23T09:51:20.657Z,2.28
2022-11-23T09:53:53.454Z,2.57
2022-11-23T09:56:23.509Z,2.17
2022-11-23T09:58:53.975Z,2.05
2022-11-23T10:01:20.613Z,1.92
2022-11-23T10:03:49.277Z,2.20
2022-11-23T10:06:22.303Z,2.00
2022-11-23T10:08:59.821Z,2.50
2022-11-23T10:11:39.005Z,2.55
2022-11-23T10:14:22.716Z,1.88
2022-11-23T10:16:56.973Z,2.35
2022-11-23T10:19:31.338Z,2.07
2022-11-23T10:22:06.552Z,2.10
2022-11-23T10:24:37.656Z,1.90
2022-11-23T10:27:13.715Z,1.80
2022-11-23T10:29:41.954Z,2.20
2022-11-23T10:32:22.514Z,1.93
2022-11-23T10:34:58.167Z,2.20
2022-11-23T10:37:26.641Z,2.10
2022-11-23T10:39:53.165Z,2.03
2022-11-23T10:42:25.797Z,1.95
2022-11-23T10:44:55.279Z,2.20
2022-11-23T10:47:36.640Z,1.92
2022-11-23T10:50:04.268Z,2.10
2022-11-23T10:52:32.760Z,2.00
2022-11-23T10:55:01.640Z,2.13
2022-11-23T10:57:32.155Z,1.97
2022-11-23T11:00:00.666Z,1.98
2022-11-23T11:02:27.486Z,1.70
2022-11-23T11:05:40.193Z,1.85
2022-11-23T11:08:16.231Z,1.70
2022-11-23T11:10:46.799Z,1.53
2022-11-23T11:13:24.982Z,1.88
2022-11-23T11:15:53.534Z,1.50
2022-11-23T11:18:20.439Z,1.70
2022-11-23T11:20:47.318Z,1.77
2022-11-23T11:23:20.163Z,1.73
2022-11-23T11:25:48.430Z,2.00
2022-11-23T11:28:25.498Z,2.13
2022-11-23T11:31:03.159Z,1.67
2022-11-23T11:33:38.611Z,2.00
2022-11-23T11:36:07.971Z,2.17
2022-11-23T11:38:38.563Z,1.98
2022-11-23T11:41:08.515Z,2.40
2022-11-23T11:43:40.164Z,1.70
2022-11-23T11:46:28.725Z,2.33
2022-11-23T11:49:03.593Z,1.67
2022-11-23T11:51:34.666Z,2.13
2022-11-23T11:54:11.407Z,1.90
2022-11-23T11:56:41.866Z,1.58
2022-11-23T11:59:16.172Z,1.90
2022-11-23T12:01:47.269Z,1.47
2022-11-23T12:04:22.975Z,2.00
2022-11-23T12:06:54.229Z,2.03
2022-11-23T12:09:27.786Z,2.10
2022-11-23T12:11:54.312Z,2.00
2022-11-23T12:14:21.304Z,1.40
2022-11-23T12:17:24.873Z,1.90
2022-11-23T12:19:49.048Z,1.70
2022-11-23T12:22:35.603Z,1.48
2022-11-23T12:25:28.588Z,1.70
2022-11-23T12:28:07.054Z,1.60
2022-11-23T12:30:42.649Z,1.33
2022-11-23T12:33:29.086Z,2.38
2022-11-23T12:36:08.945Z,1.52
2022-11-23T12:38:45.542Z,1.40
2022-11-23T12:41:23.601Z,1.80
2022-11-23T12:44:08.076Z,1.50
2022-11-23T12:46:42.715Z,1.40
2022-11-23T12:49:26.637Z,1.80
2022-11-23T12:52:04.301Z,1.75
2022-11-23T12:54:48.540Z,1.90
2022-11-23T12:57:22.234Z,1.25
2022-11-23T12:59:54.966Z,1.33
2022-11-23T13:02:47.071Z,1.38
2022-11-23T13:05:43.653Z,1.52
2022-11-23T13:08:35.668Z,1.30
2022-11-23T13:11:17.895Z,1.63
2022-11-23T13:14:00.110Z,1.48
2022-11-23T13:16:59.865Z,2.20
2022-11-23T13:19:41.528Z,2.55
2022-11-23T13:22:14.738Z,1.93
2022-11-23T13:25:01.015Z,1.40
2022-11-23T13:27:54.692Z,1.83
2022-11-23T13:30:45.973Z,1.50
2022-11-23T13:33:31.557Z,1.25
2022-11-23T13:36:07.466Z,1.50
2022-11-23T13:38:39.319Z,1.27
2022-11-23T13:41:54.710Z,2.38
2022-11-23T13:44:24.124Z,2.08
2022-11-23T13:47:00.507Z,1.52
2022-11-23T13:49:41.120Z,1.90
2022-11-23T13:52:26.732Z,2.60
2022-11-23T13:54:57.103Z,1.70
2022-11-23T13:57:24.208Z,2.40
2022-11-23T13:59:50.972Z,1.38
2022-11-23T14:02:29.275Z,1.57
2022-11-23T14:05:33.258Z,2.33
2022-11-23T14:08:03.234Z,1.40
2022-11-23T14:10:31.629Z,1.40
2022-11-23T14:13:02.608Z,1.35
2022-11-23T14:15:32.724Z,1.30
2022-11-23T14:18:31.236Z,1.80
2022-11-23T14:21:07.629Z,1.50
2022-11-23T14:24:15.852Z,1.95
2022-11-23T14:26:51.849Z,1.58
2022-11-23T14:29:32.032Z,1.50
2022-11-23T14:32:13.069Z,1.40
2022-11-23T14:34:51.524Z,1.67
2022-11-23T14:37:28.347Z,1.63
2022-11-23T14:40:12.222Z,1.92
2022-11-23T14:42:43.906Z,2.10
2022-11-23T14:45:13.979Z,1.60
2022-11-23T14:47:40.668Z,1.80
2022-11-23T14:50:21.221Z,1.48
2022-11-23T14:52:48.069Z,1.60
2022-11-23T14:55:19.660Z,1.33
2022-11-23T14:57:48.317Z,3.42
2022-11-23T15:00:27.184Z,1.80
2022-11-23T15:02:55.704Z,2.00
2022-11-23T15:05:28.104Z,1.85
2022-11-23T15:07:58.782Z,2.00
2022-11-23T15:10:33.987Z,2.75
2022-11-23T15:13:00.717Z,4.85
2022-11-23T15:15:29.140Z,5.68
2022-11-23T15:17:56.913Z,4.90
2022-11-23T15:20:29.391Z,4.70
2022-11-23T15:22:56.100Z,3.88
2022-11-23T15:25:22.688Z,3.63
2022-11-23T15:27:49.257Z,4.10
2022-11-23T15:30:18.894Z,4.03
2022-11-23T15:32:55.162Z,3.30
2022-11-23T15:35:28.254Z,3.20
2022-11-23T15:37:55.274Z,3.17
2022-11-23T15:40:23.547Z,2.28
2022-11-23T15:42:51.083Z,2.60
2022-11-23T15:45:39.219Z,2.80
2022-11-23T15:48:11.951Z,3.20
2022-11-23T15:50:48.679Z,3.80
2022-11-23T15:53:15.292Z,2.97
2022-11-23T15:55:42.924Z,3.40
2022-11-23T15:58:15.050Z,3.40
2022-11-23T16:00:48.548Z,3.10
2022-11-23T16:03:28.726Z,2.50
2022-11-23T16:06:19.597Z,2.88
2022-11-23T16:08:46.185Z,3.15
2022-11-23T16:11:28.547Z,5.40
2022-11-23T16:14:11.037Z,4.32
2022-11-23T16:16:42.705Z,3.10
2022-11-23T16:19:25.018Z,3.10
2022-11-23T16:22:01.960Z,3.13
2022-11-23T16:24:30.979Z,3.60
2022-11-23T16:26:58.218Z,9.20
2022-11-23T16:29:26.188Z,3.63
2022-11-23T16:31:55.831Z,3.28
2022-11-23T16:34:22.685Z,2.92
2022-11-23T16:36:49.668Z,3.30
2022-11-23T16:39:17.614Z,2.35
2022-11-23T16:41:44.200Z,3.08
2022-11-23T16:44:10.762Z,1.90
2022-11-23T16:46:43.073Z,1.90
2022-11-23T16:49:15.743Z,2.23
2022-11-23T16:51:42.389Z,3.25
2022-11-23T16:54:13.316Z,2.08
2022-11-23T16:56:42.347Z,2.30
2022-11-23T16:59:16.146Z,2.10
2022-11-23T17:01:43.825Z,2.27
2022-11-23T17:04:10.866Z,2.70
2022-11-23T17:06:37.552Z,2.60
2022-11-23T17:09:08.069Z,2.28
2022-11-23T17:11:38.898Z,2.28
2022-11-23T17:14:07.523Z,2.90
2022-11-23T17:16:34.188Z,2.78
2022-11-23T17:19:00.914Z,2.88
2022-11-23T17:21:27.457Z,3.65
2022-11-23T17:23:54.029Z,4.22
2022-11-23T17:26:29.393Z,4.80
2022-11-23T17:28:56.730Z,4.60
2022-11-23T17:31:24.929Z,4.60
2022-11-23T17:33:51.534Z,4.93
2022-11-23T17:36:18.274Z,5.60
2022-11-23T17:38:45.093Z,4.87
2022-11-23T17:41:11.579Z,4.50
2022-11-23T17:43:38.103Z,4.53
2022-11-23T17:46:05.153Z,3.90
2022-11-23T17:48:33.551Z,3.55
2022-11-23T17:51:00.100Z,2.97
2022-11-23T17:53:26.762Z,3.40
2022-11-23T17:55:53.334Z,3.60
2022-11-23T17:58:19.900Z,4.35
2022-11-23T18:00:46.637Z,4.30
2022-11-23T18:03:13.263Z,3.90
2022-11-23T18:05:41.250Z,3.85
2022-11-23T18:08:08.035Z,2.70
2022-11-23T18:10:34.593Z,2.92
2022-11-23T18:13:01.079Z,3.63
2022-11-23T18:15:27.670Z,4.40
2022-11-23T18:17:54.383Z,3.15
2022-11-23T18:20:20.959Z,3.25
2022-11-23T18:22:48.898Z,2.67
2022-11-23T18:25:15.649Z,3.13
2022-11-23T18:27:42.211Z,2.53
2022-11-23T18:30:09.421Z,3.80
2022-11-23T18:32:35.950Z,3.97
2022-11-23T18:35:02.525Z,3.60
2022-11-23T18:37:29.088Z,4.15
2022-11-23T18:39:57.175Z,5.37
2022-11-23T18:42:23.695Z,4.55
2022-11-23T18:44:50.202Z,5.10
2022-11-23T18:47:16.864Z,4.40
2022-11-23T18:49:43.426Z,5.40
2022-11-23T18:52:10.193Z,5.57
2022-11-23T18:54:36.875Z,3.88
2022-11-23T18:57:04.817Z,3.78
2022-11-23T19:02:18.047Z,3.80
2022-11-23T19:04:44.617Z,7.77
2022-11-23T19:07:11.187Z,7.63
2022-11-23T19:09:37.736Z,3.35
2022-11-23T19:12:06.471Z,2.92
2022-11-23T19:14:33.389Z,2.78
2022-11-23T19:16:59.931Z,2.10
2022-11-23T19:19:26.513Z,2.85
2022-11-23T19:21:53.246Z,2.92
2022-11-23T19:24:19.759Z,2.60
2022-11-23T19:26:46.288Z,2.60
2022-11-23T19:29:14.165Z,2.10
2022-11-23T19:31:40.839Z,2.67
2022-11-23T19:34:07.447Z,2.50
2022-11-23T19:36:35.372Z,2.20
2022-11-23T19:39:02.556Z,2.42
2022-11-23T19:41:30.810Z,1.97
2022-11-23T19:43:59.169Z,2.80
2022-11-23T19:46:28.352Z,3.13
2022-11-23T19:48:55.524Z,4.03
2022-11-23T19:51:22.103Z,4.38
2022-11-23T19:53:48.682Z,2.93
2022-11-23T19:56:16.623Z,2.25
2022-11-23T19:58:43.848Z,5.65
2022-11-23T20:01:12.605Z,4.00
2022-11-23T20:03:42.135Z,5.55
2022-11-23T20:06:12.943Z,5.60
2022-11-23T20:08:39.502Z,4.90
2022-11-23T20:11:07.144Z,5.13
2022-11-23T20:13:33.940Z,2.92
2022-11-23T20:16:02.239Z,2.53
2022-11-23T20:18:29.928Z,1.90
2022-11-23T20:20:57.922Z,1.95
2022-11-23T20:23:24.718Z,1.90
2022-11-23T20:25:51.266Z,1.98
2022-11-23T20:28:17.840Z,2.70
2022-11-23T20:30:44.437Z,2.50
2022-11-23T20:33:11.043Z,3.10
2022-11-23T20:35:37.706Z,2.10
2022-11-23T20:38:05.726Z,2.70
2022-11-23T20:40:32.396Z,2.85
2022-11-23T20:42:59.631Z,2.43
2022-11-23T20:45:26.656Z,3.00
2022-11-23T20:47:53.294Z,3.95
2022-11-23T20:50:19.928Z,2.65
2022-11-23T20:52:46.590Z,2.25
2022-11-23T20:55:14.516Z,1.60
2022-11-23T20:57:41.084Z,2.47
2022-11-23T21:00:09.161Z,2.17
2022-11-23T21:02:35.692Z,2.05
2022-11-23T21:05:02.330Z,1.85
2022-11-23T21:07:28.952Z,1.83
2022-11-23T21:09:55.541Z,2.03
2022-11-23T21:12:23.473Z,2.10
2022-11-23T21:14:49.961Z,2.38
2022-11-23T21:17:16.582Z,2.10
2022-11-23T21:19:43.108Z,2.27
2022-11-23T21:22:11.540Z,3.33
2022-11-23T21:24:38.436Z,2.33
2022-11-23T21:27:06.799Z,2.03
2022-11-23T21:29:34.778Z,2.47
2022-11-23T21:32:01.366Z,2.40
2022-11-23T21:34:29.417Z,2.45
2022-11-23T21:36:57.394Z,2.80
2022-11-23T21:39:24.790Z,2.80
2022-11-23T21:41:53.197Z,3.30
2022-11-23T21:44:20.013Z,3.20
2022-11-23T21:46:48.043Z,3.00
2022-11-23T21:49:14.648Z,3.10
2022-11-23T21:51:41.230Z,2.55
2022-11-23T21:54:09.198Z,2.88
2022-11-23T21:56:35.787Z,3.27
2022-11-23T21:59:02.344Z,3.20
2022-11-23T22:01:30.585Z,3.15
2022-11-23T22:04:01.236Z,3.00
2022-11-23T22:06:28.348Z,3.45
2022-11-23T22:08:57.019Z,2.67
2022-11-23T22:11:25.405Z,3.08
2022-11-23T22:13:53.720Z,3.20
2022-11-23T22:16:21.635Z,2.95
2022-11-23T22:18:54.023Z,3.00
2022-11-23T22:21:24.920Z,3.40
2022-11-23T22:23:51.603Z,3.17
2022-11-23T22:26:19.493Z,3.05
2022-11-23T22:28:47.473Z,3.35
2022-11-23T22:31:17.545Z,3.00
2022-11-23T22:33:44.483Z,3.03
2022-11-23T22:36:13.942Z,2.97
2022-11-23T22:38:42.191Z,2.95
2022-11-23T22:41:10.271Z,2.97
2022-11-23T22:43:37.041Z,3.17
2022-11-23T22:46:05.948Z,3.30
2022-11-23T22:48:35.995Z,3.05
2022-11-23T22:51:02.932Z,3.10
2022-11-23T22:53:29.888Z,3.33
2022-11-23T22:56:01.828Z,3.30
2022-11-23T22:58:28.854Z,3.60
2022-11-23T23:00:55.963Z,3.30
2022-11-23T23:03:22.537Z,3.47
2022-11-23T23:05:54.221Z,3.40
2022-11-23T23:08:20.754Z,3.83
2022-11-23T23:10:47.295Z,3.47
2022-11-23T23:13:15.471Z,3.20
2022-11-23T23:15:41.998Z,4.22
2022-11-23T23:18:08.559Z,3.65
2022-11-23T23:20:35.687Z,3.72
2022-11-23T23:23:02.405Z,4.03
2022-11-23T23:25:28.953Z,3.20
2022-11-23T23:27:55.653Z,3.70
2022-11-23T23:30:24.068Z,3.80
2022-11-23T23:32:50.811Z,3.95
2022-11-23T23:35:17.418Z,4.07
2022-11-23T23:37:43.959Z,3.47
2022-11-23T23:40:10.891Z,3.95
2022-11-23T23:42:37.432Z,3.78
2022-11-23T23:45:04.380Z,3.45
2022-11-23T23:47:32.299Z,3.50
2022-11-23T23:49:58.953Z,3.30
2022-11-23T23:52:25.519Z,3.80
2022-11-23T23:54:52.013Z,3.67
2022-11-23T23:57:18.708Z,3.80
2022-11-23T23:59:45.255Z,3.73
